createdAt,value
2022-08-28T00:00:00.212Z,90.42
2022-08-28T00:02:26.738Z,91.09
2022-08-28T00:04:53.258Z,91.25
2022-08-28T00:07:19.771Z,91.62
2022-08-28T00:09:46.365Z,91.65
2022-08-28T00:12:13.048Z,91.56
2022-08-28T00:14:39.769Z,91.17
2022-08-28T00:17:06.353Z,90.70
2022-08-28T00:19:38.438Z,90.43
2022-08-28T00:22:05.876Z,90.19
2022-08-28T00:24:33.949Z,90.56
2022-08-28T00:27:18.647Z,90.98
2022-08-28T00:29:45.314Z,90.17
2022-08-28T00:32:11.854Z,89.41
2022-08-28T00:34:38.880Z,89.44
2022-08-28T00:37:05.952Z,90.93
2022-08-28T00:39:32.663Z,89.93
2022-08-28T00:41:59.149Z,90.72
2022-08-28T00:44:27.892Z,90.85
2022-08-28T00:46:57.901Z,90.70
2022-08-28T00:49:33.689Z,91.10
2022-08-28T00:52:12.327Z,91.25
2022-08-28T00:54:58.674Z,91.71
2022-08-28T00:57:35.631Z,91.98
2022-08-28T01:00:06.546Z,92.06
2022-08-28T01:02:33.280Z,92.12
2022-08-28T01:04:59.913Z,92.38
2022-08-28T01:07:26.546Z,92.15
2022-08-28T01:09:55.496Z,92.11
2022-08-28T01:12:25.349Z,92.24
2022-08-28T01:14:54.859Z,91.52
2022-08-28T01:17:23.670Z,91.75
2022-08-28T01:19:57.173Z,91.89
2022-08-28T01:22:59.131Z,91.39
2022-08-28T01:25:30.656Z,90.68
2022-08-28T01:27:58.063Z,90.98
2022-08-28T01:30:25.269Z,90.94
2022-08-28T01:32:55.307Z,90.89
2022-08-28T01:35:26.354Z,91.72
2022-08-28T01:37:54.740Z,91.91
2022-08-28T01:40:26.552Z,91.81
2022-08-28T01:42:53.810Z,91.24
2022-08-28T01:45:21.925Z,91.20
2022-08-28T01:47:48.532Z,92.17
2022-08-28T01:50:23.301Z,92.67
2022-08-28T01:52:49.882Z,92.51
2022-08-28T01:55:16.506Z,92.16
2022-08-28T01:57:51.399Z,93.25
2022-08-28T02:00:18.464Z,93.78
2022-08-28T02:02:44.986Z,93.08
2022-08-28T02:05:12.096Z,92.61
2022-08-28T02:07:39.172Z,93.39
2022-08-28T02:10:08.143Z,93.26
2022-08-28T02:12:34.807Z,93.70
2022-08-28T02:15:01.819Z,93.78
2022-08-28T02:17:28.502Z,92.79
2022-08-28T02:19:54.993Z,93.77
2022-08-28T02:22:21.498Z,94.07
2022-08-28T02:24:48.046Z,93.71
2022-08-28T02:27:14.603Z,93.57
2022-08-28T02:29:41.165Z,93.64
2022-08-28T02:32:08.246Z,94.49
2022-08-28T02:34:35.039Z,94.82
2022-08-28T02:37:02.223Z,94.76
2022-08-28T02:39:28.763Z,94.60
2022-08-28T02:41:55.650Z,94.93
2022-08-28T02:44:22.234Z,93.85
2022-08-28T02:46:48.688Z,93.11
2022-08-28T02:52:00.910Z,93.62
2022-08-28T02:54:27.479Z,93.87
2022-08-28T02:56:54.464Z,93.09
2022-08-28T02:59:21.361Z,92.95
2022-08-28T03:01:48.538Z,93.11
2022-08-28T03:04:15.046Z,93.71
2022-08-28T03:06:42.083Z,93.91
2022-08-28T03:09:08.802Z,94.21
2022-08-28T03:11:36.937Z,93.46
2022-08-28T03:14:04.944Z,92.42
2022-08-28T03:16:32.589Z,91.91
2022-08-28T03:18:59.323Z,93.08
2022-08-28T03:21:25.922Z,93.08
2022-08-28T03:23:52.421Z,93.69
2022-08-28T03:26:20.388Z,93.69
2022-08-28T03:28:50.735Z,92.93
2022-08-28T03:31:20.199Z,92.91
2022-08-28T03:33:47.787Z,92.64
2022-08-28T03:36:21.458Z,91.98
2022-08-28T03:38:49.858Z,92.00
2022-08-28T03:41:19.415Z,92.02
2022-08-28T03:43:54.093Z,92.60
2022-08-28T03:46:24.384Z,92.68
2022-08-28T03:48:52.495Z,92.45
2022-08-28T03:51:29.585Z,92.36
2022-08-28T03:53:57.965Z,92.34
2022-08-28T03:56:27.501Z,92.57
2022-08-28T03:58:58.084Z,92.68
2022-08-28T04:01:25.722Z,92.76
2022-08-28T04:03:52.451Z,92.39
2022-08-28T04:06:19.804Z,92.42
2022-08-28T04:08:47.170Z,91.56
2022-08-28T04:11:13.676Z,91.55
2022-08-28T04:13:41.712Z,92.06
2022-08-28T04:16:11.942Z,92.77
2022-08-28T04:18:40.642Z,93.29
2022-08-28T04:21:28.926Z,92.67
2022-08-28T04:23:55.624Z,92.33
2022-08-28T04:26:25.064Z,92.07
2022-08-28T04:28:52.804Z,93.34
2022-08-28T04:31:32.427Z,92.30
2022-08-28T04:34:05.125Z,92.92
2022-08-28T04:36:33.540Z,92.22
2022-08-28T04:39:00.418Z,91.99
2022-08-28T04:41:28.391Z,92.85
2022-08-28T04:43:57.462Z,92.68
2022-08-28T04:46:31.197Z,92.70
2022-08-28T04:48:58.561Z,92.57
2022-08-28T04:51:25.201Z,93.62
2022-08-28T04:53:52.449Z,93.21
2022-08-28T04:56:19.116Z,93.68
2022-08-28T04:58:45.675Z,93.48
2022-08-28T05:01:18.914Z,93.28
2022-08-28T05:03:48.895Z,92.79
2022-08-28T05:06:16.882Z,93.08
2022-08-28T05:08:44.062Z,92.63
2022-08-28T05:11:13.974Z,91.93
2022-08-28T05:13:52.581Z,92.02
2022-08-28T05:16:22.407Z,93.17
2022-08-28T05:18:49.996Z,92.10
2022-08-28T05:21:20.631Z,91.34
2022-08-28T05:23:53.504Z,91.21
2022-08-28T05:26:20.659Z,91.35
2022-08-28T05:28:48.455Z,91.85
2022-08-28T05:31:21.141Z,90.96
2022-08-28T05:33:49.277Z,91.02
2022-08-28T05:36:18.139Z,91.82
2022-08-28T05:38:44.654Z,91.40
2022-08-28T05:41:11.938Z,90.40
2022-08-28T05:43:39.195Z,89.42
2022-08-28T05:46:10.451Z,89.34
2022-08-28T05:48:39.647Z,89.95
2022-08-28T05:51:09.266Z,88.55
2022-08-28T05:53:43.346Z,88.46
2022-08-28T05:56:19.428Z,88.47
2022-08-28T05:58:45.946Z,88.23
2022-08-28T06:01:20.185Z,87.69
2022-08-28T06:03:54.987Z,87.48
2022-08-28T06:06:24.493Z,86.60
2022-08-28T06:08:59.323Z,85.90
2022-08-28T06:11:30.578Z,85.51
2022-08-28T06:14:01.780Z,85.52
2022-08-28T06:16:32.174Z,84.72
2022-08-28T06:19:00.632Z,85.25
2022-08-28T06:21:27.720Z,84.01
2022-08-28T06:23:56.099Z,82.89
2022-08-28T06:26:23.709Z,83.75
2022-08-28T06:28:50.169Z,81.48
2022-08-28T06:31:24.519Z,80.16
2022-08-28T06:33:54.442Z,80.84
2022-08-28T06:36:21.580Z,79.11
2022-08-28T06:38:48.051Z,79.33
2022-08-28T06:41:15.585Z,77.67
2022-08-28T06:43:42.465Z,77.75
2022-08-28T06:46:09.136Z,76.90
2022-08-28T06:48:44.062Z,76.90
2022-08-28T06:51:12.405Z,76.63
2022-08-28T06:53:40.949Z,75.88
2022-08-28T06:56:09.232Z,75.38
2022-08-28T06:58:40.644Z,75.30
2022-08-28T07:01:17.480Z,74.81
2022-08-28T07:03:45.494Z,74.50
2022-08-28T07:06:13.740Z,74.93
2022-08-28T07:08:41.362Z,73.53
2022-08-28T07:11:13.191Z,73.77
2022-08-28T07:13:43.796Z,73.48
2022-08-28T07:16:11.220Z,72.88
2022-08-28T07:18:38.184Z,71.78
2022-08-28T07:21:08.067Z,71.66
2022-08-28T07:23:38.724Z,71.92
2022-08-28T07:26:08.227Z,72.54
2022-08-28T07:28:35.036Z,71.17
2022-08-28T07:31:06.114Z,70.31
2022-08-28T07:33:33.580Z,70.26
2022-08-28T07:36:00.322Z,71.01
2022-08-28T07:38:27.518Z,68.89
2022-08-28T07:40:55.033Z,70.07
2022-08-28T07:43:40.118Z,68.16
2022-08-28T07:46:09.465Z,69.74
2022-08-28T07:48:37.488Z,68.72
2022-08-28T07:51:05.191Z,68.24
2022-08-28T07:53:36.227Z,69.09
2022-08-28T07:56:04.097Z,66.77
2022-08-28T07:58:30.594Z,66.43
2022-08-28T08:00:58.432Z,66.42
2022-08-28T08:03:25.698Z,66.63
2022-08-28T08:05:53.683Z,63.99
2022-08-28T08:08:20.181Z,62.82
2022-08-28T08:10:56.029Z,60.83
2022-08-28T08:13:22.886Z,58.70
2022-08-28T08:15:49.491Z,56.99
2022-08-28T08:18:17.110Z,57.77
2022-08-28T08:20:47.705Z,56.40
2022-08-28T08:23:15.446Z,55.04
2022-08-28T08:25:41.816Z,56.44
2022-08-28T08:28:08.536Z,55.32
2022-08-28T08:30:36.172Z,55.23
2022-08-28T08:33:02.589Z,54.45
2022-08-28T08:35:29.075Z,54.87
2022-08-28T08:37:55.535Z,55.48
2022-08-28T08:40:22.240Z,56.73
2022-08-28T08:42:51.251Z,55.68
2022-08-28T08:45:21.384Z,56.53
2022-08-28T08:47:55.811Z,56.45
2022-08-28T08:50:32.506Z,57.82
2022-08-28T08:53:28.385Z,56.95
2022-08-28T08:55:57.829Z,56.16
2022-08-28T08:58:32.717Z,56.98
2022-08-28T09:01:18.414Z,57.93
2022-08-28T09:04:10.195Z,58.89
2022-08-28T09:06:58.407Z,59.97
2022-08-28T09:09:35.093Z,59.24
2022-08-28T09:12:03.630Z,59.66
2022-08-28T09:14:51.831Z,60.29
2022-08-28T09:17:22.097Z,61.12
2022-08-28T09:19:49.394Z,63.24
2022-08-28T09:22:16.263Z,62.13
2022-08-28T09:24:43.676Z,62.87
2022-08-28T09:27:29.573Z,60.34
2022-08-28T09:29:59.587Z,61.92
2022-08-28T09:32:41.543Z,59.78
2022-08-28T09:35:24.419Z,60.59
2022-08-28T09:37:51.394Z,61.49
2022-08-28T09:40:50.883Z,62.18
2022-08-28T09:43:26.698Z,62.97
2022-08-28T09:46:18.319Z,61.92
2022-08-28T09:48:46.859Z,61.71
2022-08-28T09:51:28.143Z,61.35
2022-08-28T09:53:54.624Z,60.27
2022-08-28T09:56:34.563Z,59.87
2022-08-28T09:59:05.775Z,60.12
2022-08-28T10:01:45.205Z,58.60
2022-08-28T10:04:32.733Z,58.91
2022-08-28T10:07:05.465Z,58.89
2022-08-28T10:09:54.855Z,57.26
2022-08-28T10:12:33.450Z,58.44
2022-08-28T10:15:22.183Z,57.85
2022-08-28T10:18:17.414Z,57.23
2022-08-28T10:20:49.830Z,56.82
2022-08-28T10:23:28.711Z,56.77
2022-08-28T10:25:55.215Z,56.80
2022-08-28T10:28:41.985Z,56.93
2022-08-28T10:31:45.740Z,55.45
2022-08-28T10:34:21.205Z,54.54
2022-08-28T10:37:03.375Z,52.21
2022-08-28T10:39:53.907Z,54.03
2022-08-28T10:42:36.294Z,53.08
2022-08-28T10:45:17.002Z,53.14
2022-08-28T10:47:45.796Z,53.68
2022-08-28T10:50:20.968Z,54.68
2022-08-28T10:53:10.267Z,56.26
2022-08-28T10:55:51.349Z,52.05
2022-08-28T10:58:24.834Z,52.06
2022-08-28T11:00:55.524Z,51.90
2022-08-28T11:03:34.383Z,52.21
2022-08-28T11:06:40.307Z,52.51
2022-08-28T11:09:25.934Z,52.47
2022-08-28T11:12:19.795Z,52.26
2022-08-28T11:14:49.511Z,50.53
2022-08-28T11:17:22.106Z,51.26
2022-08-28T11:20:07.332Z,50.63
2022-08-28T11:22:39.917Z,50.33
2022-08-28T11:25:42.321Z,51.91
2022-08-28T11:28:23.606Z,51.24
2022-08-28T11:31:10.148Z,50.69
2022-08-28T11:33:46.675Z,51.03
2022-08-28T11:36:19.342Z,49.21
2022-08-28T11:38:45.733Z,50.56
2022-08-28T11:41:21.772Z,50.27
2022-08-28T11:43:52.364Z,50.21
2022-08-28T11:46:33.910Z,50.59
2022-08-28T11:49:05.205Z,50.62
2022-08-28T11:51:40.991Z,50.85
2022-08-28T11:54:26.352Z,52.00
2022-08-28T11:57:06.157Z,53.34
2022-08-28T11:59:59.779Z,52.28
2022-08-28T12:02:39.162Z,52.34
2022-08-28T12:05:09.339Z,54.01
2022-08-28T12:07:39.047Z,52.38
2022-08-28T12:10:20.677Z,53.42
2022-08-28T12:12:47.151Z,53.01
2022-08-28T12:15:34.111Z,51.96
2022-08-28T12:18:10.750Z,52.62
2022-08-28T12:20:53.623Z,51.35
2022-08-28T12:23:37.374Z,50.39
2022-08-28T12:26:08.982Z,52.86
2022-08-28T12:29:01.187Z,50.50
2022-08-28T12:31:53.703Z,51.35
2022-08-28T12:34:52.867Z,50.46
2022-08-28T12:37:52.347Z,51.09
2022-08-28T12:40:27.692Z,51.03
2022-08-28T12:43:15.571Z,51.10
2022-08-28T12:45:55.972Z,51.02
2022-08-28T12:48:29.540Z,51.16
2022-08-28T12:51:00.599Z,50.67
2022-08-28T12:53:57.362Z,50.02
2022-08-28T12:56:26.059Z,49.75
2022-08-28T12:58:52.878Z,50.45
2022-08-28T13:01:33.500Z,49.41
2022-08-28T13:04:04.492Z,49.83
2022-08-28T13:06:36.391Z,50.21
2022-08-28T13:09:16.424Z,49.65
2022-08-28T13:11:49.209Z,50.43
2022-08-28T13:14:41.954Z,50.28
2022-08-28T13:17:10.108Z,48.55
2022-08-28T13:19:37.906Z,47.91
2022-08-28T13:22:25.068Z,47.38
2022-08-28T13:24:59.184Z,47.55
2022-08-28T13:27:25.714Z,47.94
2022-08-28T13:30:06.857Z,49.49
2022-08-28T13:32:37.345Z,45.51
2022-08-28T13:35:18.444Z,46.54
2022-08-28T13:37:48.370Z,46.18
2022-08-28T13:40:45.925Z,46.22
2022-08-28T13:43:08.169Z,46.42
2022-08-28T13:45:42.911Z,45.60
2022-08-28T13:48:13.126Z,46.37
2022-08-28T13:50:42.880Z,46.49
2022-08-28T13:53:14.523Z,47.51
2022-08-28T13:55:41.117Z,48.63
2022-08-28T13:58:07.679Z,48.93
2022-08-28T14:00:39.645Z,48.02
2022-08-28T14:03:24.758Z,48.81
2022-08-28T14:05:51.192Z,48.77
2022-08-28T14:08:17.607Z,49.28
2022-08-28T14:10:44.130Z,49.86
2022-08-28T14:13:10.539Z,50.10
2022-08-28T14:15:36.983Z,49.59
2022-08-28T14:18:03.408Z,50.32
2022-08-28T14:20:29.924Z,50.91
2022-08-28T14:22:56.348Z,50.94
2022-08-28T14:25:23.343Z,51.73
2022-08-28T14:27:49.826Z,51.08
2022-08-28T14:30:16.955Z,52.36
2022-08-28T14:32:43.411Z,51.55
2022-08-28T14:35:10.367Z,51.54
2022-08-28T14:37:36.896Z,51.37
2022-08-28T14:40:04.789Z,51.54
2022-08-28T14:42:31.294Z,51.85
2022-08-28T14:44:57.772Z,51.65
2022-08-28T14:47:24.945Z,51.43
2022-08-28T14:49:51.437Z,50.51
2022-08-28T14:52:19.447Z,50.64
2022-08-28T14:54:45.954Z,51.17
2022-08-28T14:57:12.464Z,49.63
2022-08-28T14:59:39.382Z,49.44
2022-08-28T15:02:06.413Z,49.85
2022-08-28T15:04:37.925Z,49.63
2022-08-28T15:07:10.599Z,49.81
2022-08-28T15:09:39.626Z,48.70
2022-08-28T15:12:06.864Z,49.46
2022-08-28T15:14:34.454Z,49.57
2022-08-28T15:17:01.668Z,49.28
2022-08-28T15:19:29.933Z,48.92
2022-08-28T15:21:57.431Z,48.99
2022-08-28T15:24:28.412Z,49.88
2022-08-28T15:26:59.528Z,49.62
2022-08-28T15:29:27.938Z,49.08
2022-08-28T15:31:54.620Z,48.64
2022-08-28T15:34:24.283Z,49.65
2022-08-28T15:36:55.891Z,49.69
2022-08-28T15:39:46.401Z,50.11
2022-08-28T15:42:13.311Z,49.51
2022-08-28T15:44:40.160Z,49.77
2022-08-28T15:47:07.026Z,49.19
2022-08-28T15:49:43.371Z,50.26
2022-08-28T15:52:15.488Z,49.31
2022-08-28T15:54:42.625Z,49.55
2022-08-28T15:57:09.053Z,50.13
2022-08-28T15:59:39.951Z,49.94
2022-08-28T16:02:17.611Z,49.39
2022-08-28T16:04:44.088Z,49.30
2022-08-28T16:07:11.085Z,49.98
2022-08-28T16:09:37.817Z,50.00
2022-08-28T16:12:04.726Z,49.51
2022-08-28T16:14:32.782Z,50.33
2022-08-28T16:16:59.386Z,50.63
2022-08-28T16:19:32.617Z,50.41
2022-08-28T16:21:59.130Z,51.17
2022-08-28T16:24:25.639Z,51.46
2022-08-28T16:26:52.072Z,51.22
2022-08-28T16:29:18.684Z,51.80
2022-08-28T16:31:47.951Z,52.28
2022-08-28T16:34:15.635Z,52.34
2022-08-28T16:36:48.090Z,53.27
2022-08-28T16:39:14.642Z,52.64
2022-08-28T16:41:42.095Z,52.70
2022-08-28T16:44:08.809Z,52.60
2022-08-28T16:46:35.275Z,52.53
2022-08-28T16:49:01.848Z,53.73
2022-08-28T16:51:29.588Z,53.24
2022-08-28T16:53:56.465Z,53.53
2022-08-28T16:56:26.606Z,53.90
2022-08-28T16:58:53.463Z,54.01
2022-08-28T17:01:22.050Z,54.12
2022-08-28T17:03:52.199Z,55.54
2022-08-28T17:06:20.755Z,56.63
2022-08-28T17:08:48.028Z,57.96
2022-08-28T17:11:14.602Z,57.75
2022-08-28T17:13:41.191Z,57.51
2022-08-28T17:16:08.145Z,58.29
2022-08-28T17:18:35.578Z,58.40
2022-08-28T17:21:20.717Z,60.42
2022-08-28T17:23:47.310Z,58.66
2022-08-28T17:26:15.281Z,59.81
2022-08-28T17:28:43.119Z,59.77
2022-08-28T17:31:09.608Z,59.79
2022-08-28T17:33:38.266Z,59.48
2022-08-28T17:36:06.514Z,59.58
2022-08-28T17:38:44.999Z,60.65
2022-08-28T17:41:11.538Z,62.79
2022-08-28T17:43:38.822Z,62.19
2022-08-28T17:46:06.150Z,62.14
2022-08-28T17:48:32.715Z,63.32
2022-08-28T17:51:01.683Z,63.53
2022-08-28T17:53:30.953Z,63.97
2022-08-28T17:55:57.464Z,64.69
2022-08-28T17:58:24.125Z,64.81
2022-08-28T18:00:51.314Z,66.14
2022-08-28T18:03:17.785Z,65.46
2022-08-28T18:05:44.240Z,65.21
2022-08-28T18:08:10.718Z,66.29
2022-08-28T18:10:37.486Z,65.67
2022-08-28T18:13:05.794Z,66.69
2022-08-28T18:15:37.902Z,67.35
2022-08-28T18:18:04.860Z,67.69
2022-08-28T18:20:31.303Z,68.29
2022-08-28T18:22:57.847Z,67.66
2022-08-28T18:25:50.612Z,68.38
2022-08-28T18:28:22.483Z,68.62
2022-08-28T18:30:53.401Z,69.28
2022-08-28T18:33:22.796Z,69.61
2022-08-28T18:35:50.554Z,69.40
2022-08-28T18:38:18.865Z,69.93
2022-08-28T18:40:48.148Z,69.91
2022-08-28T18:43:14.939Z,70.32
2022-08-28T18:45:41.421Z,70.63
2022-08-28T18:48:10.711Z,71.02
2022-08-28T18:50:37.931Z,71.03
2022-08-28T18:53:05.438Z,71.26
2022-08-28T18:55:33.445Z,71.06
2022-08-28T18:58:00.364Z,72.57
2022-08-28T19:00:27.263Z,72.78
2022-08-28T19:02:54.390Z,72.79
2022-08-28T19:05:21.529Z,73.56
2022-08-28T19:07:48.593Z,73.67
2022-08-28T19:10:32.768Z,74.10
2022-08-28T19:13:01.060Z,73.65
2022-08-28T19:15:28.639Z,74.07
2022-08-28T19:17:55.368Z,74.46
2022-08-28T19:20:22.426Z,74.06
2022-08-28T19:22:49.502Z,75.03
2022-08-28T19:25:22.420Z,74.49
2022-08-28T19:27:59.170Z,74.70
2022-08-28T19:30:27.586Z,75.49
2022-08-28T19:32:54.053Z,75.15
2022-08-28T19:35:20.915Z,76.22
2022-08-28T19:37:50.893Z,76.15
2022-08-28T19:40:17.389Z,76.17
2022-08-28T19:42:43.981Z,75.68
2022-08-28T19:45:12.456Z,76.38
2022-08-28T19:47:40.020Z,76.04
2022-08-28T19:50:08.893Z,76.25
2022-08-28T19:52:36.623Z,76.84
2022-08-28T19:55:05.603Z,76.93
2022-08-28T19:57:32.955Z,77.35
2022-08-28T20:00:00.071Z,77.07
2022-08-28T20:02:27.271Z,77.19
2022-08-28T20:04:54.476Z,77.94
2022-08-28T20:07:20.941Z,77.76
2022-08-28T20:09:47.419Z,78.19
2022-08-28T20:12:14.599Z,78.15
2022-08-28T20:14:42.547Z,78.08
2022-08-28T20:17:09.426Z,78.04
2022-08-28T20:19:35.946Z,78.45
2022-08-28T20:22:03.796Z,78.37
2022-08-28T20:24:30.362Z,78.69
2022-08-28T20:26:57.399Z,78.69
2022-08-28T20:29:24.207Z,78.77
2022-08-28T20:31:51.163Z,78.64
2022-08-28T20:34:19.169Z,78.56
2022-08-28T20:36:46.275Z,78.65
2022-08-28T20:39:13.135Z,78.74
2022-08-28T20:41:49.949Z,79.10
2022-08-28T20:44:32.159Z,79.26
2022-08-28T20:46:58.616Z,79.66
2022-08-28T20:49:25.198Z,80.38
2022-08-28T20:51:58.688Z,80.70
2022-08-28T20:54:33.649Z,80.85
2022-08-28T20:57:02.971Z,80.98
2022-08-28T20:59:37.249Z,81.03
2022-08-28T21:02:15.765Z,81.42
2022-08-28T21:04:44.349Z,81.15
2022-08-28T21:07:14.889Z,81.29
2022-08-28T21:10:04.208Z,81.64
2022-08-28T21:12:28.190Z,81.10
2022-08-28T21:14:54.653Z,80.78
2022-08-28T21:17:28.692Z,81.13
2022-08-28T21:19:57.099Z,80.96
2022-08-28T21:22:23.645Z,81.31
2022-08-28T21:24:50.068Z,80.88
2022-08-28T21:27:16.586Z,81.29
2022-08-28T21:29:45.905Z,81.66
2022-08-28T21:32:12.740Z,81.40
2022-08-28T21:34:39.245Z,81.28
2022-08-28T21:37:06.403Z,81.86
2022-08-28T21:39:33.113Z,81.63
2022-08-28T21:41:59.656Z,81.95
2022-08-28T21:44:26.302Z,81.51
2022-08-28T21:46:52.837Z,82.29
2022-08-28T21:49:19.312Z,82.66
2022-08-28T21:51:45.905Z,82.64
2022-08-28T21:54:12.513Z,82.78
2022-08-28T21:56:39.050Z,83.12
2022-08-28T21:59:06.355Z,82.50
2022-08-28T22:01:32.881Z,83.19
2022-08-28T22:03:59.385Z,82.87
2022-08-28T22:06:26.611Z,83.12
2022-08-28T22:08:54.761Z,83.37
2022-08-28T22:11:25.108Z,83.43
2022-08-28T22:13:52.702Z,83.32
2022-08-28T22:16:19.442Z,82.72
2022-08-28T22:18:46.172Z,82.09
2022-08-28T22:21:33.765Z,82.43
2022-08-28T22:24:00.703Z,82.16
2022-08-28T22:26:27.858Z,83.32
2022-08-28T22:28:55.874Z,84.49
2022-08-28T22:31:23.194Z,85.17
2022-08-28T22:33:49.753Z,85.01
2022-08-28T22:36:17.326Z,84.72
2022-08-28T22:38:52.458Z,84.15
2022-08-28T22:41:20.743Z,83.70
2022-08-28T22:43:51.251Z,84.89
2022-08-28T22:46:20.445Z,85.04
2022-08-28T22:48:47.147Z,85.75
2022-08-28T22:51:18.262Z,86.06
2022-08-28T22:53:45.238Z,85.95
2022-08-28T22:56:12.830Z,86.50
2022-08-28T22:58:40.039Z,86.65
2022-08-28T23:01:15.115Z,86.28
2022-08-28T23:08:46.953Z,85.92
2022-08-28T23:12:07.645Z,86.29
2022-08-28T23:22:34.019Z,87.58
2022-08-28T23:26:53.827Z,88.29
2022-08-28T23:51:53.406Z,88.09
2022-08-28T23:54:22.959Z,88.48
2022-08-28T23:57:08.098Z,89.05
